createdAt,value
2018-05-14T00:01:12.408Z,45.00
2018-05-14T00:03:40.004Z,45.80
2018-05-14T00:06:07.492Z,45.63
2018-05-14T00:08:35.015Z,45.87
2018-05-14T00:11:02.624Z,45.81
2018-05-14T00:13:30.172Z,45.52
2018-05-14T00:15:57.728Z,45.54
2018-05-14T00:18:25.260Z,45.48
2018-05-14T00:20:52.851Z,45.29
2018-05-14T00:23:20.412Z,46.63
2018-05-14T00:25:47.935Z,46.77
2018-05-14T00:28:15.467Z,46.89
2018-05-14T00:30:43.091Z,46.59
2018-05-14T00:33:10.647Z,47.04
2018-05-14T00:35:38.176Z,47.03
2018-05-14T00:38:05.707Z,47.10
2018-05-14T00:40:33.229Z,47.29
2018-05-14T00:43:00.755Z,46.61
2018-05-14T00:45:28.286Z,46.46
2018-05-14T00:47:55.895Z,47.00
2018-05-14T00:50:23.415Z,47.35
2018-05-14T00:52:50.960Z,46.81
2018-05-14T00:55:18.489Z,46.65
2018-05-14T00:57:46.013Z,47.39
2018-05-14T01:00:13.538Z,46.46
2018-05-14T01:02:41.684Z,47.02
2018-05-14T01:05:09.211Z,47.63
2018-05-14T01:07:36.801Z,47.58
2018-05-14T01:10:04.358Z,47.50
2018-05-14T01:12:31.878Z,47.36
2018-05-14T01:14:59.408Z,47.62
2018-05-14T01:17:26.935Z,47.75
2018-05-14T01:19:54.460Z,47.85
2018-05-14T01:22:21.985Z,47.24
2018-05-14T01:24:55.008Z,48.16
2018-05-14T01:27:22.536Z,47.10
2018-05-14T01:29:50.157Z,47.84
2018-05-14T01:32:17.693Z,47.00
2018-05-14T01:34:47.455Z,48.12
2018-05-14T01:37:15.090Z,48.41
2018-05-14T01:39:42.623Z,48.03
2018-05-14T01:42:10.144Z,48.26
2018-05-14T01:44:37.773Z,48.51
2018-05-14T01:47:05.293Z,47.95
2018-05-14T01:49:32.855Z,48.46
2018-05-14T01:52:00.383Z,47.81
2018-05-14T01:54:28.015Z,48.79
2018-05-14T01:56:55.578Z,49.01
2018-05-14T01:59:23.119Z,47.84
2018-05-14T02:01:50.690Z,49.19
2018-05-14T02:04:18.218Z,48.94
2018-05-14T02:06:45.818Z,48.86
2018-05-14T02:09:13.362Z,48.16
2018-05-14T02:11:40.933Z,49.64
2018-05-14T02:14:08.461Z,49.40
2018-05-14T02:16:36.039Z,48.34
2018-05-14T02:19:03.548Z,49.18
2018-05-14T02:21:31.161Z,50.09
2018-05-14T02:23:58.675Z,49.91
2018-05-14T02:26:26.224Z,50.03
2018-05-14T02:28:53.736Z,50.27
2018-05-14T02:31:21.283Z,50.50
2018-05-14T02:33:48.813Z,48.76
2018-05-14T02:36:16.410Z,50.21
2018-05-14T02:38:43.977Z,50.32
2018-05-14T02:41:11.537Z,50.50
2018-05-14T02:43:39.049Z,51.06
2018-05-14T02:46:06.569Z,50.13
2018-05-14T02:48:34.094Z,50.84
2018-05-14T02:51:01.689Z,51.09
2018-05-14T02:53:29.247Z,51.48
2018-05-14T02:55:56.803Z,51.33
2018-05-14T02:58:24.332Z,50.11
2018-05-14T03:00:51.852Z,49.69
2018-05-14T03:03:19.423Z,50.14
2018-05-14T03:05:46.977Z,50.94
2018-05-14T03:08:14.502Z,51.33
2018-05-14T03:10:42.027Z,51.31
2018-05-14T03:13:09.630Z,52.13
2018-05-14T03:15:37.157Z,52.39
2018-05-14T03:18:04.749Z,51.62
2018-05-14T03:20:32.260Z,52.24
2018-05-14T03:22:59.866Z,52.65
2018-05-14T03:25:27.412Z,52.86
2018-05-14T03:27:54.938Z,52.43
2018-05-14T03:30:22.567Z,53.23
2018-05-14T03:32:50.095Z,53.16
2018-05-14T03:35:17.627Z,52.67
2018-05-14T03:37:45.170Z,53.23
2018-05-14T03:40:12.714Z,52.82
2018-05-14T03:42:40.228Z,52.10
2018-05-14T03:45:07.756Z,53.58
2018-05-14T03:47:35.291Z,53.39
2018-05-14T03:50:02.923Z,53.09
2018-05-14T03:52:30.441Z,52.17
2018-05-14T03:54:57.969Z,53.90
2018-05-14T03:57:25.501Z,54.33
2018-05-14T04:00:04.760Z,54.76
2018-05-14T04:02:44.056Z,53.90
2018-05-14T04:05:20.157Z,54.64
2018-05-14T04:07:47.696Z,54.94
2018-05-14T04:10:15.220Z,54.59
2018-05-14T04:12:42.765Z,54.52
2018-05-14T04:15:10.293Z,54.82
2018-05-14T04:17:37.828Z,54.74
2018-05-14T04:20:05.361Z,54.80
2018-05-14T04:22:32.872Z,53.87
2018-05-14T04:25:00.407Z,55.26
2018-05-14T04:27:27.934Z,55.41
2018-05-14T04:29:55.453Z,55.05
2018-05-14T04:32:22.985Z,55.39
2018-05-14T04:34:50.525Z,55.09
2018-05-14T04:37:18.066Z,55.32
2018-05-14T04:39:45.592Z,54.86
2018-05-14T04:42:13.103Z,55.27
2018-05-14T04:44:40.665Z,54.77
2018-05-14T04:47:08.196Z,54.05
2018-05-14T04:49:35.737Z,55.04
2018-05-14T04:52:03.289Z,54.99
2018-05-14T04:54:30.813Z,54.65
2018-05-14T04:56:58.352Z,55.15
2018-05-14T04:59:25.865Z,55.19
2018-05-14T05:01:53.392Z,54.93
2018-05-14T05:04:20.919Z,54.88
2018-05-14T05:06:48.440Z,55.13
2018-05-14T05:09:15.972Z,55.02
2018-05-14T05:11:43.499Z,55.30
2018-05-14T05:14:11.060Z,55.56
2018-05-14T05:16:38.588Z,55.20
2018-05-14T05:19:06.148Z,56.03
2018-05-14T05:21:33.759Z,54.93
2018-05-14T05:24:01.293Z,55.62
2018-05-14T05:26:28.832Z,54.83
2018-05-14T05:28:56.357Z,54.78
2018-05-14T05:31:23.878Z,54.33
2018-05-14T05:33:51.407Z,54.50
2018-05-14T05:36:18.932Z,54.38
2018-05-14T05:38:46.490Z,54.26
2018-05-14T05:41:14.021Z,54.57
2018-05-14T05:43:41.543Z,54.29
2018-05-14T05:46:09.167Z,54.32
2018-05-14T05:48:36.716Z,54.17
2018-05-14T05:51:04.259Z,54.16
2018-05-14T05:53:31.800Z,53.99
2018-05-14T05:55:59.331Z,54.52
2018-05-14T05:58:26.842Z,54.40
2018-05-14T06:00:54.359Z,52.99
2018-05-14T06:03:21.984Z,53.05
2018-05-14T06:05:49.515Z,52.74
2018-05-14T06:08:17.067Z,52.44
2018-05-14T06:10:44.664Z,51.83
2018-05-14T06:13:12.211Z,52.36
2018-05-14T06:15:39.790Z,52.31
2018-05-14T06:18:07.314Z,51.38
2018-05-14T06:20:34.838Z,49.66
2018-05-14T06:23:02.352Z,49.23
2018-05-14T06:25:29.875Z,49.96
2018-05-14T06:27:57.393Z,48.95
2018-05-14T06:30:24.941Z,49.49
2018-05-14T06:32:52.468Z,47.99
2018-05-14T06:35:20.032Z,47.83
2018-05-14T06:37:47.562Z,48.03
2018-05-14T06:40:15.098Z,47.79
2018-05-14T06:42:42.623Z,46.13
2018-05-14T06:45:10.157Z,44.21
2018-05-14T06:47:37.701Z,45.69
2018-05-14T06:50:05.223Z,43.85
2018-05-14T06:52:32.831Z,45.44
2018-05-14T06:55:00.300Z,44.84
2018-05-14T06:57:27.899Z,44.47
2018-05-14T06:59:55.444Z,42.72
2018-05-14T07:02:22.968Z,42.03
2018-05-14T07:04:50.579Z,42.64
2018-05-14T07:07:18.096Z,42.01
2018-05-14T07:09:45.684Z,42.80
2018-05-14T07:12:13.226Z,41.39
2018-05-14T07:14:40.818Z,41.89
2018-05-14T07:17:08.347Z,40.85
2018-05-14T07:19:35.865Z,40.54
2018-05-14T07:22:03.504Z,39.93
2018-05-14T07:24:31.028Z,40.28
2018-05-14T07:26:58.555Z,40.64
2018-05-14T07:29:26.189Z,40.74
2018-05-14T07:31:53.840Z,41.61
2018-05-14T07:34:21.386Z,41.07
2018-05-14T07:36:48.928Z,38.33
2018-05-14T07:39:16.448Z,38.76
2018-05-14T07:41:43.979Z,37.82
2018-05-14T07:44:11.509Z,40.84
2018-05-14T07:46:39.033Z,40.33
2018-05-14T07:49:06.596Z,40.12
2018-05-14T07:51:34.218Z,37.48
2018-05-14T07:54:01.743Z,41.20
2018-05-14T07:56:29.338Z,39.45
2018-05-14T07:58:56.861Z,39.41
2018-05-14T08:01:24.396Z,39.08
2018-05-14T08:03:51.952Z,38.24
2018-05-14T08:06:19.485Z,37.79
2018-05-14T08:08:47.164Z,35.37
2018-05-14T08:11:14.711Z,37.37
2018-05-14T08:13:42.243Z,36.98
2018-05-14T08:16:09.767Z,36.56
2018-05-14T08:18:37.289Z,33.39
2018-05-14T08:21:04.822Z,31.77
2018-05-14T08:23:32.399Z,30.67
2018-05-14T08:25:59.924Z,32.39
2018-05-14T08:28:27.445Z,31.58
2018-05-14T08:30:54.969Z,32.74
2018-05-14T08:33:22.499Z,30.55
2018-05-14T08:35:50.061Z,30.55
2018-05-14T08:38:17.576Z,28.40
2018-05-14T08:40:45.129Z,29.50
2018-05-14T08:43:12.645Z,30.71
2018-05-14T08:45:40.232Z,29.92
2018-05-14T08:48:07.861Z,26.58
2018-05-14T08:50:35.356Z,26.65
2018-05-14T08:53:02.923Z,27.14
2018-05-14T08:55:30.452Z,26.81
2018-05-14T08:57:57.995Z,27.61
2018-05-14T09:00:25.512Z,28.70
2018-05-14T09:02:53.151Z,26.37
2018-05-14T09:05:20.676Z,23.81
2018-05-14T09:07:48.204Z,23.96
2018-05-14T09:10:15.833Z,25.21
2018-05-14T09:12:43.393Z,24.38
2018-05-14T09:15:10.919Z,24.32
2018-05-14T09:17:38.512Z,24.44
2018-05-14T09:20:06.036Z,26.21
2018-05-14T09:22:33.550Z,24.33
2018-05-14T09:25:01.192Z,24.53
2018-05-14T09:27:28.756Z,23.11
2018-05-14T09:29:56.317Z,22.94
2018-05-14T09:32:23.972Z,23.00
2018-05-14T09:34:51.533Z,25.03
2018-05-14T09:37:19.154Z,23.04
2018-05-14T09:39:46.652Z,24.75
2018-05-14T09:42:14.203Z,23.07
2018-05-14T09:44:41.728Z,24.13
2018-05-14T09:47:09.333Z,23.08
2018-05-14T09:49:36.851Z,24.49
2018-05-14T09:52:04.388Z,24.58
2018-05-14T09:54:31.909Z,24.21
2018-05-14T09:56:59.439Z,22.91
2018-05-14T09:59:26.959Z,21.89
2018-05-14T10:01:54.488Z,23.15
2018-05-14T10:04:22.003Z,22.01
2018-05-14T10:06:49.559Z,21.69
2018-05-14T10:09:17.151Z,21.44
2018-05-14T10:11:44.686Z,21.54
2018-05-14T10:14:12.361Z,21.83
2018-05-14T10:16:39.893Z,23.67
2018-05-14T10:19:07.440Z,22.22
2018-05-14T10:21:34.966Z,22.21
2018-05-14T10:24:02.527Z,23.50
2018-05-14T10:26:30.053Z,21.70
2018-05-14T10:28:57.578Z,20.66
2018-05-14T10:31:25.103Z,20.16
2018-05-14T10:33:52.633Z,19.26
2018-05-14T10:36:20.225Z,19.70
2018-05-14T10:38:47.752Z,21.06
2018-05-14T10:41:15.277Z,20.86
2018-05-14T10:43:42.837Z,22.57
2018-05-14T10:46:10.362Z,21.61
2018-05-14T10:48:37.878Z,21.98
2018-05-14T10:51:05.450Z,22.45
2018-05-14T10:53:32.968Z,23.36
2018-05-14T10:56:00.484Z,23.64
2018-05-14T10:58:28.017Z,23.49
2018-05-14T11:00:55.620Z,24.10
2018-05-14T11:03:23.148Z,24.70
2018-05-14T11:05:50.662Z,25.16
2018-05-14T11:08:18.359Z,24.96
2018-05-14T11:10:45.886Z,24.75
2018-05-14T11:13:13.453Z,24.98
2018-05-14T11:15:41.087Z,25.59
2018-05-14T11:18:08.603Z,25.77
2018-05-14T11:20:36.145Z,26.56
2018-05-14T11:23:03.688Z,26.22
2018-05-14T11:25:31.218Z,26.04
2018-05-14T11:27:58.780Z,26.20
2018-05-14T11:30:26.308Z,26.90
2018-05-14T11:32:53.853Z,27.24
2018-05-14T11:35:21.429Z,26.60
2018-05-14T11:37:49.247Z,26.69
2018-05-14T11:40:16.871Z,25.98
2018-05-14T11:42:44.744Z,26.30
2018-05-14T11:45:12.275Z,26.25
2018-05-14T11:47:39.828Z,27.33
2018-05-14T11:50:07.371Z,25.98
2018-05-14T11:52:34.890Z,26.34
2018-05-14T11:55:02.449Z,26.38
2018-05-14T11:57:30.010Z,27.35
2018-05-14T11:59:57.569Z,27.35
2018-05-14T12:02:25.129Z,28.12
2018-05-14T12:04:52.657Z,27.24
2018-05-14T12:07:20.217Z,26.96
2018-05-14T12:09:47.881Z,27.50
2018-05-14T12:12:15.500Z,27.60
2018-05-14T12:14:43.020Z,27.47
2018-05-14T12:17:10.549Z,26.93
2018-05-14T12:19:38.136Z,27.24
2018-05-14T12:22:05.712Z,27.28
2018-05-14T12:24:33.236Z,27.66
2018-05-14T12:27:00.785Z,27.81
2018-05-14T12:29:28.311Z,27.65
2018-05-14T12:31:55.852Z,27.19
2018-05-14T12:34:23.376Z,27.14
2018-05-14T12:36:50.901Z,27.17
2018-05-14T12:39:18.422Z,27.31
2018-05-14T12:41:45.934Z,27.08
2018-05-14T12:44:13.478Z,26.94
2018-05-14T12:46:41.006Z,27.32
2018-05-14T12:49:08.547Z,27.09
2018-05-14T12:51:36.082Z,27.63
2018-05-14T12:54:03.607Z,27.71
2018-05-14T12:56:31.149Z,27.99
2018-05-14T12:58:58.668Z,28.01
2018-05-14T13:01:26.240Z,28.31
2018-05-14T13:03:53.764Z,27.82
2018-05-14T13:06:21.300Z,27.21
2018-05-14T13:08:48.882Z,27.54
2018-05-14T13:11:16.399Z,28.05
2018-05-14T13:13:43.920Z,28.18
2018-05-14T13:16:11.441Z,28.33
2018-05-14T13:18:38.981Z,28.62
2018-05-14T13:21:06.497Z,28.46
2018-05-14T13:23:34.025Z,28.28
2018-05-14T13:26:01.555Z,28.42
2018-05-14T13:28:29.080Z,29.48
2018-05-14T13:30:56.628Z,28.85
2018-05-14T13:33:24.160Z,29.29
2018-05-14T13:35:51.692Z,28.79
2018-05-14T13:38:19.215Z,29.53
2018-05-14T13:40:46.748Z,28.99
2018-05-14T13:43:14.297Z,28.98
2018-05-14T13:45:41.832Z,29.10
2018-05-14T13:48:09.356Z,29.33
2018-05-14T13:50:36.881Z,29.32
2018-05-14T13:53:04.407Z,29.41
2018-05-14T13:55:31.930Z,28.99
2018-05-14T13:57:59.449Z,29.19
2018-05-14T14:00:26.967Z,29.79
2018-05-14T14:02:54.481Z,29.73
2018-05-14T14:05:22.004Z,29.49
2018-05-14T14:07:49.531Z,29.60
2018-05-14T14:10:17.054Z,29.70
2018-05-14T14:12:44.600Z,29.32
2018-05-14T14:15:12.111Z,30.00
2018-05-14T14:17:39.668Z,29.74
2018-05-14T14:20:07.193Z,29.94
2018-05-14T14:22:34.762Z,29.55
2018-05-14T14:25:02.327Z,29.69
2018-05-14T14:27:29.945Z,29.74
2018-05-14T14:29:57.500Z,30.04
2018-05-14T14:32:25.028Z,29.83
2018-05-14T14:34:52.552Z,29.73
2018-05-14T14:37:20.177Z,30.28
2018-05-14T14:39:47.753Z,30.23
2018-05-14T14:42:15.403Z,29.79
2018-05-14T14:44:42.927Z,29.65
2018-05-14T14:47:10.523Z,29.98
2018-05-14T14:49:38.078Z,29.82
2018-05-14T14:52:05.605Z,29.52
2018-05-14T14:54:33.158Z,29.81
2018-05-14T14:57:00.692Z,29.84
2018-05-14T14:59:28.237Z,29.60
2018-05-14T15:01:55.873Z,29.62
2018-05-14T15:04:23.414Z,29.67
2018-05-14T15:06:50.964Z,29.58
2018-05-14T15:09:18.488Z,29.54
2018-05-14T15:11:46.008Z,29.77
2018-05-14T15:14:13.535Z,29.57
2018-05-14T15:16:41.079Z,30.13
2018-05-14T15:19:08.636Z,29.98
2018-05-14T15:21:36.264Z,29.99
2018-05-14T15:24:03.931Z,30.64
2018-05-14T15:26:31.453Z,30.55
2018-05-14T15:28:59.017Z,29.98
2018-05-14T15:31:26.543Z,30.13
2018-05-14T15:33:54.163Z,29.97
2018-05-14T15:36:21.713Z,30.43
2018-05-14T15:38:49.242Z,30.25
2018-05-14T15:41:16.786Z,30.46
2018-05-14T15:43:44.341Z,30.23
2018-05-14T15:46:11.888Z,30.24
2018-05-14T15:48:39.403Z,30.30
2018-05-14T15:51:06.937Z,30.42
2018-05-14T15:53:34.494Z,31.04
2018-05-14T15:56:02.014Z,30.95
2018-05-14T15:58:29.650Z,31.05
2018-05-14T16:00:57.219Z,31.25
2018-05-14T16:03:24.751Z,31.50
2018-05-14T16:05:52.282Z,31.10
2018-05-14T16:08:19.808Z,31.52
2018-05-14T16:10:47.344Z,31.28
2018-05-14T16:13:14.926Z,31.08
2018-05-14T16:15:42.464Z,31.13
2018-05-14T16:18:10.045Z,31.18
2018-05-14T16:20:37.604Z,30.96
2018-05-14T16:23:05.128Z,31.43
2018-05-14T16:25:32.724Z,31.07
2018-05-14T16:28:00.264Z,31.30
2018-05-14T16:30:27.792Z,31.37
2018-05-14T16:32:55.308Z,31.28
2018-05-14T16:35:22.863Z,31.33
2018-05-14T16:37:50.394Z,31.18
2018-05-14T16:40:17.908Z,31.20
2018-05-14T16:42:45.558Z,31.44
2018-05-14T16:45:13.107Z,30.89
2018-05-14T16:47:40.634Z,31.00
2018-05-14T16:50:08.148Z,30.65
2018-05-14T16:52:35.678Z,30.74
2018-05-14T16:55:03.237Z,30.74
2018-05-14T16:57:30.768Z,30.69
2018-05-14T16:59:58.300Z,31.32
2018-05-14T17:02:25.845Z,30.96
2018-05-14T17:04:53.392Z,31.12
2018-05-14T17:07:20.917Z,31.14
2018-05-14T17:09:48.464Z,30.81
2018-05-14T17:12:16.060Z,30.81
2018-05-14T17:14:43.585Z,30.71
2018-05-14T17:17:11.099Z,30.77
2018-05-14T17:19:38.631Z,31.00
2018-05-14T17:22:06.176Z,31.06
2018-05-14T17:24:33.706Z,31.07
2018-05-14T17:27:01.236Z,31.19
2018-05-14T17:29:28.772Z,31.15
2018-05-14T17:31:56.300Z,31.12
2018-05-14T17:34:23.819Z,31.18
2018-05-14T17:36:51.347Z,31.35
2018-05-14T17:39:18.877Z,31.75
2018-05-14T17:41:46.416Z,31.62
2018-05-14T17:44:13.945Z,31.28
2018-05-14T17:46:41.463Z,31.33
2018-05-14T17:49:08.983Z,31.53
2018-05-14T17:51:36.504Z,31.50
2018-05-14T17:54:04.033Z,31.83
2018-05-14T17:56:31.547Z,31.87
2018-05-14T17:58:59.079Z,32.17
2018-05-14T18:01:26.977Z,32.20
2018-05-14T18:03:54.510Z,32.38
2018-05-14T18:06:22.032Z,32.34
2018-05-14T18:08:49.548Z,31.90
2018-05-14T18:11:17.085Z,32.54
2018-05-14T18:13:44.615Z,32.52
2018-05-14T18:16:12.155Z,32.46
2018-05-14T18:18:39.684Z,32.72
2018-05-14T18:21:12.112Z,32.76
2018-05-14T18:23:45.224Z,32.74
2018-05-14T18:26:17.671Z,32.81
2018-05-14T18:28:49.030Z,32.92
2018-05-14T18:31:22.322Z,32.97
2018-05-14T18:33:49.820Z,33.33
2018-05-14T18:36:20.036Z,33.12
2018-05-14T18:38:47.571Z,33.49
2018-05-14T18:41:15.099Z,33.35
2018-05-14T18:43:42.740Z,33.86
2018-05-14T18:46:10.367Z,33.88
2018-05-14T18:48:37.891Z,33.82
2018-05-14T18:51:05.430Z,33.97
2018-05-14T18:53:32.976Z,34.12
2018-05-14T18:56:00.500Z,34.08
2018-05-14T18:58:28.066Z,34.23
2018-05-14T19:00:55.590Z,34.46
2018-05-14T19:03:23.115Z,34.08
2018-05-14T19:05:50.708Z,34.66
2018-05-14T19:08:18.304Z,34.56
2018-05-14T19:10:51.575Z,34.26
2018-05-14T19:13:19.264Z,34.83
2018-05-14T19:15:52.375Z,34.98
2018-05-14T19:18:20.016Z,35.20
2018-05-14T19:20:47.543Z,35.21
2018-05-14T19:23:20.786Z,35.42
2018-05-14T19:25:48.308Z,35.22
2018-05-14T19:31:19.729Z,35.31
2018-05-14T19:33:52.895Z,35.58
2018-05-14T19:36:20.404Z,34.62
2018-05-14T19:38:47.928Z,34.77
2018-05-14T19:41:15.469Z,35.63
2018-05-14T19:43:42.979Z,35.71
2018-05-14T19:46:10.509Z,35.88
2018-05-14T19:48:38.038Z,34.93
2018-05-14T19:51:05.556Z,35.81
2018-05-14T19:53:33.086Z,35.08
2018-05-14T19:56:00.623Z,35.86
2018-05-14T19:58:28.144Z,36.08
2018-05-14T20:00:55.672Z,35.59
2018-05-14T20:03:23.243Z,36.03
2018-05-14T20:05:50.792Z,36.28
2018-05-14T20:08:18.394Z,36.10
2018-05-14T20:10:45.937Z,36.06
2018-05-14T20:13:13.459Z,36.47
2018-05-14T20:15:41.922Z,36.23
2018-05-14T20:18:09.449Z,36.26
2018-05-14T20:20:36.968Z,36.69
2018-05-14T20:23:04.491Z,36.88
2018-05-14T20:25:32.012Z,36.46
2018-05-14T20:27:59.557Z,37.10
2018-05-14T20:30:27.077Z,37.02
2018-05-14T20:32:54.605Z,37.10
2018-05-14T20:35:22.120Z,37.04
2018-05-14T20:37:49.658Z,36.66
2018-05-14T20:40:17.177Z,37.23
2018-05-14T20:42:44.702Z,37.54
2018-05-14T20:45:12.233Z,37.75
2018-05-14T20:47:39.760Z,38.02
2018-05-14T20:50:07.285Z,38.22
2018-05-14T20:52:34.832Z,38.33
2018-05-14T20:55:02.363Z,38.43
2018-05-14T20:57:29.883Z,37.75
2018-05-14T20:59:57.406Z,38.85
2018-05-14T21:02:24.947Z,39.22
2018-05-14T21:04:52.491Z,38.93
2018-05-14T21:07:20.016Z,39.30
2018-05-14T21:09:47.545Z,38.80
2018-05-14T21:12:15.077Z,39.45
2018-05-14T21:14:42.625Z,39.60
2018-05-14T21:17:10.157Z,39.65
2018-05-14T21:19:37.687Z,39.94
2018-05-14T21:22:05.233Z,39.33
2018-05-14T21:24:32.756Z,40.20
2018-05-14T21:27:00.273Z,40.47
2018-05-14T21:29:27.808Z,39.33
2018-05-14T21:31:55.321Z,39.39
2018-05-14T21:34:22.864Z,39.19
2018-05-14T21:36:50.441Z,40.71
2018-05-14T21:39:17.965Z,41.02
2018-05-14T21:41:45.489Z,40.34
2018-05-14T21:44:13.024Z,40.48
2018-05-14T21:46:40.544Z,39.87
2018-05-14T21:49:08.072Z,41.37
2018-05-14T21:51:35.606Z,40.12
2018-05-14T21:54:03.128Z,41.13
2018-05-14T21:56:30.679Z,41.16
2018-05-14T21:58:58.231Z,40.10
2018-05-14T22:01:25.772Z,40.69
2018-05-14T22:03:53.297Z,41.44
2018-05-14T22:06:20.817Z,41.92
2018-05-14T22:08:48.359Z,41.00
2018-05-14T22:11:15.904Z,40.22
2018-05-14T22:13:43.443Z,40.95
2018-05-14T22:16:10.985Z,40.40
2018-05-14T22:18:38.508Z,41.60
2018-05-14T22:21:06.028Z,41.70
2018-05-14T22:23:33.557Z,41.67
2018-05-14T22:26:01.093Z,42.11
2018-05-14T22:28:28.623Z,40.89
2018-05-14T22:30:56.140Z,41.15
2018-05-14T22:33:23.701Z,41.38
2018-05-14T22:35:51.242Z,41.64
2018-05-14T22:38:18.772Z,41.29
2018-05-14T22:40:46.294Z,41.75
2018-05-14T22:43:13.812Z,41.82
2018-05-14T22:45:41.359Z,41.54
2018-05-14T22:48:08.899Z,41.51
2018-05-14T22:50:36.424Z,42.44
2018-05-14T22:53:03.957Z,42.12
2018-05-14T22:55:31.482Z,42.04
2018-05-14T22:57:59.000Z,42.94
2018-05-14T23:00:27.439Z,41.77
2018-05-14T23:02:54.978Z,41.82
2018-05-14T23:05:22.520Z,42.26
2018-05-14T23:07:50.046Z,42.22
2018-05-14T23:10:17.593Z,42.26
2018-05-14T23:12:45.111Z,42.94
2018-05-14T23:15:12.637Z,42.53
2018-05-14T23:17:40.163Z,43.18
2018-05-14T23:20:07.707Z,42.67
2018-05-14T23:22:44.035Z,43.24
2018-05-14T23:25:11.571Z,43.04
2018-05-14T23:27:39.097Z,42.99
2018-05-14T23:30:06.632Z,44.25
2018-05-14T23:32:34.151Z,43.09
2018-05-14T23:35:01.675Z,43.94
2018-05-14T23:37:29.206Z,43.57
2018-05-14T23:39:56.725Z,44.14
2018-05-14T23:42:24.255Z,43.77
2018-05-14T23:44:51.791Z,44.24
2018-05-14T23:47:19.315Z,44.04
2018-05-14T23:49:46.845Z,44.07
2018-05-14T23:52:14.366Z,45.12
2018-05-14T23:54:41.880Z,44.79
2018-05-14T23:57:09.396Z,45.32
2018-05-14T23:59:36.907Z,44.53
